Time;durP1;ratioP1;P1;durP2;ratioP2;P2;SDS_P1;SDS_P2;PMS_P1;PMS_P2;Temp;Humidity;BMP_temperature;BMP_pressure;BME280_temperature;BME280_humidity;BME280_pressure;Samples;Min_cycle;Max_cycle;Signal;HPM_P1;HPM_P2
2021/05/09 00:00:24;;;;;;;22.42;8.35;;;17.90;86.60;;;;;;5092630;28;20522;-68
2021/05/09 00:03:28;;;;;;;17.85;7.93;;;17.90;86.70;;;;;;5093411;28;20055;-66
2021/05/09 00:06:32;;;;;;;21.63;6.95;;;17.90;86.70;;;;;;5094445;28;20043;-68
2021/05/09 00:09:36;;;;;;;19.42;7.28;;;17.90;86.50;;;;;;5094296;28;20043;-68
2021/05/09 00:12:41;;;;;;;18.58;7.28;;;17.90;86.10;;;;;;5093914;28;20047;-68
2021/05/09 00:15:48;;;;;;;15.48;6.85;;;17.90;86.00;;;;;;5094750;28;20058;-68
2021/05/09 00:18:52;;;;;;;16.13;7.05;;;17.80;86.10;;;;;;5093306;28;20047;-68
2021/05/09 00:21:56;;;;;;;21.15;7.55;;;17.70;86.80;;;;;;5093895;28;20040;-67
2021/05/09 00:25:01;;;;;;;23.95;6.72;;;17.80;86.90;;;;;;5093978;28;20059;-66
2021/05/09 00:28:06;;;;;;;21.70;7.32;;;17.70;87.00;;;;;;5093750;28;20047;-66
2021/05/09 00:31:10;;;;;;;13.50;7.25;;;17.70;87.30;;;;;;5093919;28;20391;-66
2021/05/09 00:34:15;;;;;;;18.98;7.22;;;17.60;87.80;;;;;;5093570;28;20070;-68
2021/05/09 00:37:19;;;;;;;23.15;7.13;;;17.60;87.50;;;;;;5094000;28;20047;-67
2021/05/09 00:40:23;;;;;;;21.33;7.30;;;17.60;87.50;;;;;;5092701;28;20039;-66
2021/05/09 00:43:30;;;;;;;14.27;7.18;;;17.60;88.00;;;;;;5093623;28;20043;-68
2021/05/09 00:46:34;;;;;;;19.48;7.50;;;17.60;87.90;;;;;;5093475;28;20427;-67
2021/05/09 00:49:50;;;;;;;15.55;6.90;;;17.50;87.50;;;;;;5092737;28;20039;-68
2021/05/09 00:52:56;;;;;;;16.15;7.20;;;17.50;87.50;;;;;;5093416;28;20043;-68
2021/05/09 00:56:02;;;;;;;17.45;7.95;;;17.50;87.50;;;;;;5093278;28;20051;-67
2021/05/09 00:59:09;;;;;;;19.83;8.25;;;17.50;88.20;;;;;;5093089;28;20031;-67
2021/05/09 01:02:14;;;;;;;16.67;7.88;;;17.50;88.10;;;;;;5092200;28;20524;-68
2021/05/09 01:05:18;;;;;;;11.18;7.10;;;17.40;87.70;;;;;;5093202;28;20043;-68
2021/05/09 01:08:23;;;;;;;20.05;7.95;;;17.40;88.60;;;;;;5092518;28;20506;-69
2021/05/09 01:11:27;;;;;;;17.10;7.55;;;17.30;88.80;;;;;;5091506;28;20102;-68
2021/05/09 01:14:32;;;;;;;21.00;7.28;;;17.30;88.80;;;;;;5092034;28;20380;-66
2021/05/09 01:17:36;;;;;;;22.30;7.45;;;17.30;88.50;;;;;;5080571;28;20142;-68
2021/05/09 01:20:40;;;;;;;14.82;7.43;;;17.40;88.10;;;;;;5091515;28;20040;-67
2021/05/09 01:23:45;;;;;;;18.05;7.95;;;17.40;88.30;;;;;;5091430;28;20511;-66
2021/05/09 01:26:49;;;;;;;16.25;7.75;;;17.40;88.30;;;;;;5091510;28;20059;-67
2021/05/09 01:29:54;;;;;;;19.75;8.40;;;17.40;88.70;;;;;;5092744;28;20055;-68
2021/05/09 01:32:57;;;;;;;16.13;8.80;;;17.30;88.90;;;;;;5092451;28;20071;-66
2021/05/09 01:36:03;;;;;;;16.73;7.80;;;17.20;89.10;;;;;;5091666;28;20062;-67
2021/05/09 01:39:07;;;;;;;14.95;6.97;;;17.20;88.80;;;;;;5092471;28;20134;-68
2021/05/09 01:42:11;;;;;;;10.02;6.85;;;17.20;88.30;;;;;;5092231;28;20491;-66
2021/05/09 01:45:17;;;;;;;16.40;6.70;;;17.20;87.90;;;;;;5090970;28;20039;-68
2021/05/09 01:48:21;;;;;;;17.45;7.90;;;17.30;87.30;;;;;;5092227;28;20059;-68
2021/05/09 01:51:25;;;;;;;15.18;7.57;;;17.30;87.10;;;;;;5091861;28;20039;-68
2021/05/09 01:54:31;;;;;;;14.30;7.10;;;17.20;87.30;;;;;;5091796;28;20510;-68
2021/05/09 01:57:36;;;;;;;16.58;7.25;;;17.00;88.00;;;;;;5091258;28;20054;-68
2021/05/09 02:00:42;;;;;;;17.38;7.15;;;17.00;88.30;;;;;;5091241;28;20051;-68
2021/05/09 02:03:54;;;;;;;12.05;6.68;;;16.90;88.60;;;;;;5090659;28;20499;-68
2021/05/09 02:07:01;;;;;;;13.98;7.22;;;17.00;88.30;;;;;;5090842;28;20047;-68
2021/05/09 02:10:08;;;;;;;16.52;6.93;;;17.10;87.60;;;;;;5090771;28;20043;-68
2021/05/09 02:13:12;;;;;;;17.48;7.75;;;17.00;87.70;;;;;;5091516;28;20067;-68
2021/05/09 02:16:25;;;;;;;11.18;7.57;;;16.90;88.10;;;;;;5090435;28;20051;-68
2021/05/09 02:19:29;;;;;;;14.73;7.20;;;16.80;88.90;;;;;;5090746;28;20047;-68
2021/05/09 02:22:35;;;;;;;17.40;7.93;;;16.70;88.80;;;;;;5078868;28;20145;-68
2021/05/09 02:25:40;;;;;;;15.63;7.47;;;16.70;88.70;;;;;;5090330;28;20051;-68
2021/05/09 02:28:48;;;;;;;21.55;6.93;;;16.70;88.90;;;;;;5090729;28;20415;-66
2021/05/09 02:31:52;;;;;;;12.02;6.68;;;16.70;89.00;;;;;;5091491;28;20047;-66
2021/05/09 02:35:05;;;;;;;12.90;6.43;;;16.70;89.00;;;;;;5090318;28;20051;-66
2021/05/09 02:38:10;;;;;;;13.13;6.13;;;16.70;88.90;;;;;;5091512;28;20392;-67
2021/05/09 02:41:14;;;;;;;9.93;5.65;;;16.70;88.90;;;;;;5090398;28;20043;-69
2021/05/09 02:44:18;;;;;;;10.65;5.75;;;16.70;89.20;;;;;;5090337;28;20502;-66
2021/05/09 02:47:30;;;;;;;15.45;6.20;;;16.70;89.00;;;;;;5090552;28;20047;-68
2021/05/09 02:50:43;;;;;;;13.77;6.57;;;16.60;89.30;;;;;;5091156;28;20031;-66
2021/05/09 02:53:47;;;;;;;10.55;6.18;;;16.60;89.30;;;;;;5090660;28;20051;-66
2021/05/09 02:56:51;;;;;;;10.95;6.03;;;16.70;88.80;;;;;;5091130;28;20043;-67
2021/05/09 02:59:54;;;;;;;16.50;5.97;;;16.60;89.00;;;;;;5091295;28;20051;-66
2021/05/09 03:02:59;;;;;;;12.45;6.22;;;16.60;89.00;;;;;;5091057;28;20507;-67
2021/05/09 03:06:05;;;;;;;14.90;6.18;;;16.60;89.30;;;;;;5090847;28;20051;-67
2021/05/09 03:09:10;;;;;;;12.95;6.47;;;16.60;88.70;;;;;;5090271;28;20071;-67
2021/05/09 03:12:16;;;;;;;12.43;5.95;;;16.60;88.90;;;;;;5090181;28;20055;-66
2021/05/09 03:15:21;;;;;;;15.38;6.07;;;16.50;88.40;;;;;;5089708;28;20411;-67
2021/05/09 03:18:26;;;;;;;13.32;6.28;;;16.40;88.90;;;;;;5090982;28;20070;-67
2021/05/09 03:21:30;;;;;;;12.40;6.32;;;16.30;89.60;;;;;;5090991;28;20051;-67
2021/05/09 03:24:36;;;;;;;12.93;6.38;;;16.20;90.10;;;;;;5090657;28;20055;-67
2021/05/09 03:27:56;;;;;;;16.63;6.40;;;16.20;90.10;;;;;;5090988;28;20450;-67
2021/05/09 03:31:00;;;;;;;12.95;5.57;;;16.20;90.00;;;;;;5090936;28;20051;-67
2021/05/09 03:34:04;;;;;;;16.13;6.40;;;16.20;89.90;;;;;;5090326;28;20055;-66
2021/05/09 03:37:08;;;;;;;16.95;6.13;;;16.30;90.00;;;;;;5094721;28;20043;-67
2021/05/09 03:40:13;;;;;;;12.30;5.70;;;16.30;90.00;;;;;;5094636;28;20486;-66
2021/05/09 03:43:17;;;;;;;20.13;10.82;;;16.30;89.40;;;;;;5093885;28;20047;-67
2021/05/09 03:46:21;;;;;;;18.67;7.85;;;16.30;89.40;;;;;;5093608;28;20043;-67
2021/05/09 03:49:25;;;;;;;16.85;6.85;;;16.30;89.30;;;;;;5094322;28;20038;-67
2021/05/09 03:52:29;;;;;;;15.48;6.63;;;16.40;89.60;;;;;;5094211;28;20098;-67
2021/05/09 03:55:33;;;;;;;14.48;5.70;;;16.40;89.80;;;;;;5094078;28;20047;-66
2021/05/09 03:58:37;;;;;;;16.45;6.35;;;16.40;88.60;;;;;;5094501;28;20095;-66
2021/05/09 04:01:43;;;;;;;13.93;6.70;;;16.40;88.20;;;;;;5093546;28;20051;-66
2021/05/09 04:04:47;;;;;;;10.07;6.35;;;16.30;88.60;;;;;;5093832;28;20043;-68
2021/05/09 04:07:51;;;;;;;13.02;6.25;;;16.20;88.80;;;;;;5093937;28;20043;-68
2021/05/09 04:10:58;;;;;;;11.20;6.60;;;16.20;89.10;;;;;;5093953;28;20047;-68
2021/05/09 04:14:03;;;;;;;11.68;6.57;;;16.20;89.40;;;;;;5093854;28;20059;-67
2021/05/09 04:17:07;;;;;;;21.52;7.68;;;16.20;89.70;;;;;;5093878;28;20039;-68
2021/05/09 04:20:12;;;;;;;8.70;6.60;;;16.10;90.10;;;;;;5094109;28;20064;-68
2021/05/09 04:23:18;;;;;;;16.58;7.00;;;16.10;90.30;;;;;;5093878;28;20047;-67
2021/05/09 04:26:23;;;;;;;13.75;6.63;;;16.10;90.40;;;;;;5093955;28;20047;-67
2021/05/09 04:29:27;;;;;;;34.42;15.95;;;16.20;90.10;;;;;;5093607;28;20047;-67
2021/05/09 04:32:31;;;;;;;96.10;47.20;;;16.40;90.20;;;;;;5093347;28;20055;-69
2021/05/09 04:35:36;;;;;;;827.85;493.70;;;16.70;88.50;;;;;;5093695;28;20051;-67
2021/05/09 04:38:40;;;;;;;661.28;356.38;;;17.10;87.00;;;;;;5093810;28;20051;-67
2021/05/09 04:41:44;;;;;;;713.45;409.02;;;17.20;86.40;;;;;;5093630;28;20062;-67
2021/05/09 04:44:51;;;;;;;888.17;498.17;;;17.20;86.40;;;;;;5093444;28;20479;-67
2021/05/09 04:47:54;;;;;;;660.42;365.10;;;17.60;85.40;;;;;;5093276;28;20063;-67
2021/05/09 04:50:58;;;;;;;588.05;326.17;;;17.90;83.90;;;;;;5093374;28;20392;-67
2021/05/09 04:54:02;;;;;;;273.98;138.38;;;18.20;82.90;;;;;;5093096;28;20170;-68
2021/05/09 04:57:07;;;;;;;50.42;26.58;;;18.50;82.40;;;;;;5092910;28;20043;-68
2021/05/09 05:00:14;;;;;;;32.90;16.58;;;18.90;80.80;;;;;;5080829;28;20047;-68
2021/05/09 05:03:18;;;;;;;26.90;12.45;;;20.00;77.50;;;;;;5080455;28;20062;-69
2021/05/09 05:06:22;;;;;;;36.70;16.27;;;21.10;73.90;;;;;;5093124;28;20649;-68
2021/05/09 05:09:26;;;;;;;38.67;15.55;;;22.10;71.80;;;;;;5080493;28;20062;-68
2021/05/09 05:12:30;;;;;;;79.35;29.20;;;22.70;69.40;;;;;;5093039;28;20043;-67
2021/05/09 05:15:34;;;;;;;49.13;24.73;;;22.70;68.40;;;;;;5092648;28;20404;-68
2021/05/09 05:18:38;;;;;;;44.63;21.23;;;22.50;68.90;;;;;;5080365;28;20047;-69
2021/05/09 05:21:42;;;;;;;31.88;15.85;;;22.10;70.50;;;;;;5092575;28;20035;-67
2021/05/09 05:24:46;;;;;;;37.97;18.08;;;21.80;71.80;;;;;;5092307;28;20096;-68
2021/05/09 05:27:50;;;;;;;33.65;15.13;;;21.60;72.30;;;;;;5092776;28;20047;-68
2021/05/09 05:30:54;;;;;;;27.50;15.00;;;21.10;72.60;;;;;;5092570;28;20071;-68
2021/05/09 05:33:59;;;;;;;42.17;18.70;;;20.70;74.20;;;;;;5092232;28;20042;-66
2021/05/09 05:37:04;;;;;;;37.88;17.02;;;20.60;75.20;;;;;;5092584;28;20424;-67
2021/05/09 05:40:11;;;;;;;41.35;20.73;;;20.80;74.70;;;;;;5093960;28;20043;-68
2021/05/09 05:43:16;;;;;;;36.17;17.40;;;21.10;73.70;;;;;;5092279;28;20047;-68
2021/05/09 05:46:20;;;;;;;35.05;18.75;;;21.50;72.80;;;;;;5092289;28;20039;-67
2021/05/09 05:49:24;;;;;;;39.08;18.48;;;21.70;72.10;;;;;;5092317;28;20067;-68
2021/05/09 05:52:28;;;;;;;35.65;17.05;;;21.90;71.90;;;;;;5091431;28;20039;-68
2021/05/09 05:55:32;;;;;;;22.95;11.80;;;22.00;70.30;;;;;;5091791;28;20051;-67
2021/05/09 05:58:36;;;;;;;30.95;12.93;;;22.10;68.50;;;;;;5090754;28;20039;-67
2021/05/09 06:01:41;;;;;;;26.20;13.63;;;22.20;69.30;;;;;;5092357;28;20047;-67
2021/05/09 06:04:47;;;;;;;35.58;14.80;;;22.40;68.60;;;;;;5091898;28;20035;-66
2021/05/09 06:07:52;;;;;;;31.80;14.70;;;22.60;68.40;;;;;;5090950;28;20055;-67
2021/05/09 06:10:56;;;;;;;26.58;12.05;;;22.90;67.70;;;;;;5091800;28;20067;-67
2021/05/09 06:14:00;;;;;;;32.38;13.77;;;23.20;66.00;;;;;;5091621;28;20059;-67
2021/05/09 06:17:04;;;;;;;25.50;13.68;;;23.50;66.10;;;;;;5091708;28;20051;-66
2021/05/09 06:20:09;;;;;;;23.95;12.48;;;23.70;65.40;;;;;;5091672;28;20047;-68
2021/05/09 06:23:12;;;;;;;16.00;8.70;;;23.80;64.80;;;;;;5091953;28;20392;-68
2021/05/09 06:26:16;;;;;;;12.65;8.27;;;23.90;64.20;;;;;;5091331;28;20063;-67
2021/05/09 06:29:21;;;;;;;17.10;8.07;;;24.10;63.90;;;;;;5091590;28;20051;-67
2021/05/09 06:32:25;;;;;;;15.45;6.88;;;24.30;62.60;;;;;;5090789;28;20050;-67
2021/05/09 06:35:31;;;;;;;16.52;7.88;;;24.40;62.40;;;;;;5090972;28;20051;-68
2021/05/09 06:38:38;;;;;;;14.85;6.97;;;24.30;62.10;;;;;;5092372;28;20043;-68
2021/05/09 06:41:43;;;;;;;15.63;7.40;;;24.40;62.40;;;;;;5091231;28;20051;-68
2021/05/09 06:44:52;;;;;;;17.67;7.32;;;24.70;62.30;;;;;;5091464;28;20047;-68
2021/05/09 06:47:58;;;;;;;14.43;6.47;;;25.00;61.60;;;;;;5090412;28;20047;-69
2021/05/09 06:51:02;;;;;;;11.52;6.30;;;25.30;59.80;;;;;;5090630;28;20047;-68
2021/05/09 06:54:07;;;;;;;15.93;6.25;;;25.40;60.00;;;;;;5090874;28;20039;-68
2021/05/09 06:57:11;;;;;;;22.42;6.80;;;25.70;60.00;;;;;;5090397;28;20396;-68
2021/05/09 07:00:17;;;;;;;11.48;5.68;;;26.00;58.60;;;;;;5091061;28;20043;-68
2021/05/09 07:03:22;;;;;;;15.82;5.93;;;26.10;57.40;;;;;;5090848;28;20047;-69
2021/05/09 07:06:26;;;;;;;15.90;5.80;;;26.40;57.50;;;;;;5090993;28;20530;-67
2021/05/09 07:09:30;;;;;;;14.50;6.78;;;26.60;56.50;;;;;;5091472;28;20058;-68
2021/05/09 07:12:34;;;;;;;14.75;5.97;;;26.80;54.90;;;;;;5095523;28;20043;-69
2021/05/09 07:15:40;;;;;;;10.00;5.68;;;26.80;54.80;;;;;;5095053;28;20102;-68
2021/05/09 07:18:44;;;;;;;12.73;5.05;;;26.80;54.60;;;;;;5095012;28;20031;-68
2021/05/09 07:21:53;;;;;;;19.08;6.07;;;27.10;54.90;;;;;;5095118;28;20047;-68
2021/05/09 07:24:58;;;;;;;12.32;5.50;;;27.50;53.90;;;;;;5094626;28;20058;-68
2021/05/09 07:28:09;;;;;;;16.17;5.60;;;27.60;52.60;;;;;;5093408;28;20059;-68
2021/05/09 07:31:15;;;;;;;11.95;4.82;;;27.90;53.80;;;;;;5093924;28;20077;-67
2021/05/09 07:34:20;;;;;;;9.90;5.53;;;28.00;52.60;;;;;;5094553;28;20140;-68
2021/05/09 07:37:24;;;;;;;20.83;5.82;;;28.00;52.00;;;;;;5094607;28;20506;-69
2021/05/09 07:40:29;;;;;;;13.23;5.55;;;28.20;52.20;;;;;;5093896;28;20059;-69
2021/05/09 07:43:33;;;;;;;8.85;4.35;;;28.30;50.40;;;;;;5094184;28;20058;-68
2021/05/09 07:46:39;;;;;;;9.55;4.30;;;28.20;51.10;;;;;;5094509;28;20050;-68
2021/05/09 07:49:43;;;;;;;9.60;3.78;;;28.40;51.20;;;;;;5094418;28;20047;-68
2021/05/09 07:52:51;;;;;;;10.20;3.65;;;28.70;50.30;;;;;;5094442;28;20043;-67
2021/05/09 07:55:56;;;;;;;30.10;5.15;;;28.70;49.30;;;;;;5094394;28;20514;-68
2021/05/09 07:59:00;;;;;;;20.80;4.65;;;28.80;50.10;;;;;;5093243;28;20034;-67
2021/05/09 08:02:05;;;;;;;19.05;4.38;;;29.10;49.70;;;;;;5094228;28;20067;-69
2021/05/09 08:05:10;;;;;;;9.88;3.83;;;29.30;48.60;;;;;;5094171;28;20507;-68
2021/05/09 08:08:14;;;;;;;13.13;4.78;;;29.30;47.90;;;;;;5093961;28;20051;-67
2021/05/09 08:11:18;;;;;;;16.25;3.78;;;29.20;48.30;;;;;;5094036;28;20074;-67
2021/05/09 08:14:22;;;;;;;27.58;4.95;;;29.20;47.30;;;;;;5093775;28;20225;-68
2021/05/09 08:17:26;;;;;;;10.43;3.13;;;29.10;48.00;;;;;;5093873;28;20502;-67
2021/05/09 08:20:31;;;;;;;8.95;3.38;;;29.00;47.50;;;;;;5093258;28;20043;-68
2021/05/09 08:23:37;;;;;;;15.95;3.70;;;29.10;47.40;;;;;;5093807;28;20055;-67
2021/05/09 08:26:41;;;;;;;24.27;5.05;;;29.00;47.70;;;;;;5092688;28;20054;-67
2021/05/09 08:29:45;;;;;;;10.40;4.38;;;29.10;49.10;;;;;;5093914;28;20039;-68
2021/05/09 08:32:50;;;;;;;8.20;3.65;;;29.20;48.40;;;;;;5093517;28;20043;-66
2021/05/09 08:35:55;;;;;;;24.30;5.95;;;29.10;49.00;;;;;;5093395;28;20039;-67
2021/05/09 08:38:58;;;;;;;9.05;3.97;;;29.30;48.30;;;;;;5093086;28;20415;-68
2021/05/09 08:42:03;;;;;;;25.25;4.03;;;29.20;47.20;;;;;;5093020;28;20051;-67
2021/05/09 08:45:07;;;;;;;10.55;3.53;;;29.30;48.40;;;;;;5092584;28;20047;-68
2021/05/09 08:48:20;;;;;;;10.95;3.65;;;29.20;47.00;;;;;;5093679;28;20487;-67
2021/05/09 08:51:25;;;;;;;11.65;3.25;;;29.10;47.50;;;;;;5093291;28;20301;-68
2021/05/09 08:54:30;;;;;;;7.78;3.75;;;29.00;47.50;;;;;;5092602;28;20319;-68
2021/05/09 08:57:35;;;;;;;16.90;3.50;;;29.10;47.00;;;;;;5092937;28;20075;-67
2021/05/09 09:00:39;;;;;;;8.10;3.00;;;29.00;46.90;;;;;;5092806;28;20067;-68
2021/05/09 09:03:43;;;;;;;13.43;4.18;;;28.80;46.60;;;;;;5092996;28;20039;-67
2021/05/09 09:06:47;;;;;;;5.93;2.80;;;28.50;46.90;;;;;;5092264;28;20054;-68
2021/05/09 09:09:52;;;;;;;8.50;3.20;;;28.40;47.00;;;;;;5092997;28;20043;-66
2021/05/09 09:12:59;;;;;;;9.63;2.70;;;28.50;47.20;;;;;;5092788;28;20272;-67
2021/05/09 09:16:04;;;;;;;12.75;3.92;;;28.50;47.10;;;;;;5092414;28;20047;-68
2021/05/09 09:19:13;;;;;;;9.77;2.70;;;28.60;48.20;;;;;;5092666;28;20039;-67
2021/05/09 09:22:18;;;;;;;17.13;3.40;;;28.70;47.50;;;;;;5092754;28;20047;-73
2021/05/09 09:25:30;;;;;;;5.28;2.65;;;28.70;47.00;;;;;;5092253;28;20066;-69
2021/05/09 09:28:35;;;;;;;11.77;3.03;;;28.70;46.80;;;;;;5092580;28;20051;-70
2021/05/09 09:31:43;;;;;;;6.35;2.50;;;28.80;47.70;;;;;;5092415;28;20047;-70
2021/05/09 09:34:50;;;;;;;10.35;2.83;;;28.80;47.50;;;;;;5092235;28;20058;-67
2021/05/09 09:37:55;;;;;;;8.15;2.53;;;28.70;46.30;;;;;;5092658;28;20046;-68
2021/05/09 09:41:13;;;;;;;6.07;2.70;;;28.50;46.90;;;;;;5092409;28;20047;-67
2021/05/09 09:44:17;;;;;;;5.90;2.22;;;28.50;48.40;;;;;;5092149;28;20051;-68
2021/05/09 09:47:45;;;;;;;8.57;2.95;;;28.50;47.30;;;;;;5092303;28;20099;-68
2021/05/09 09:50:51;;;;;;;12.55;3.10;;;28.60;47.10;;;;;;5091330;28;20059;-67
2021/05/09 09:53:56;;;;;;;7.72;2.83;;;28.80;47.40;;;;;;5092106;28;20395;-67
2021/05/09 09:57:10;;;;;;;10.45;3.78;;;28.90;47.70;;;;;;5091773;28;20047;-67
2021/05/09 10:00:16;;;;;;;11.10;3.10;;;29.00;45.50;;;;;;5091893;28;20039;-66
2021/05/09 10:03:21;;;;;;;9.70;2.83;;;28.90;46.30;;;;;;5091674;28;20055;-69
2021/05/09 10:06:28;;;;;;;12.43;4.53;;;28.90;46.60;;;;;;5090878;28;20055;-67
2021/05/09 10:09:32;;;;;;;5.80;3.00;;;28.90;46.40;;;;;;5091286;28;20051;-68
2021/05/09 10:12:38;;;;;;;6.43;3.38;;;29.00;47.20;;;;;;5091744;28;20059;-68
2021/05/09 10:15:42;;;;;;;16.73;4.30;;;29.00;47.20;;;;;;5091366;28;20051;-68
2021/05/09 10:18:48;;;;;;;10.40;4.38;;;29.10;48.50;;;;;;5091872;28;20444;-67
2021/05/09 10:21:53;;;;;;;14.77;4.13;;;29.10;48.60;;;;;;5091762;28;20054;-67
2021/05/09 10:24:58;;;;;;;15.70;4.50;;;29.00;48.70;;;;;;5091210;28;20407;-74
2021/05/09 10:28:09;;;;;;;17.20;4.88;;;29.00;49.50;;;;;;5090473;28;20410;-68
2021/05/09 10:31:27;;;;;;;11.65;4.28;;;29.10;49.20;;;;;;5091615;28;20043;-67
2021/05/09 10:34:56;;;;;;;10.85;4.82;;;29.00;48.80;;;;;;5090834;28;20050;-67
2021/05/09 10:38:02;;;;;;;12.93;3.60;;;28.70;47.20;;;;;;5090953;28;20044;-68
2021/05/09 10:41:12;;;;;;;21.98;4.20;;;28.50;48.90;;;;;;5091146;28;20039;-66
2021/05/09 10:44:46;;;;;;;21.98;4.35;;;28.40;49.40;;;;;;5089906;28;20048;-67
2021/05/09 10:48:24;;;;;;;17.95;4.53;;;28.50;49.10;;;;;;5091101;28;20051;-69
2021/05/09 10:51:29;;;;;;;11.43;4.18;;;28.50;49.50;;;;;;5090136;28;20392;-68
2021/05/09 10:54:44;;;;;;;12.00;3.80;;;28.50;49.30;;;;;;5091058;28;20046;-68
2021/05/09 10:57:53;;;;;;;12.05;4.10;;;28.60;48.90;;;;;;5090308;28;20050;-68
2021/05/09 11:00:59;;;;;;;9.35;3.88;;;28.50;48.40;;;;;;5090894;28;20035;-69
2021/05/09 11:04:07;;;;;;;14.75;4.00;;;28.50;48.50;;;;;;5090278;28;20035;-69
2021/05/09 11:07:42;;;;;;;16.05;4.13;;;28.50;47.90;;;;;;5090934;28;20047;-67
2021/05/09 11:10:46;;;;;;;9.93;3.40;;;28.40;47.00;;;;;;5090656;28;20051;-68
2021/05/09 11:14:13;;;;;;;7.68;3.75;;;28.30;47.10;;;;;;5090516;28;20035;-67
2021/05/09 11:17:18;;;;;;;5.82;3.33;;;28.20;46.70;;;;;;5094085;28;20039;-67
2021/05/09 11:20:25;;;;;;;13.35;4.15;;;28.00;47.10;;;;;;5091028;28;20062;-67
2021/05/09 11:23:39;;;;;;;7.57;3.80;;;28.00;48.70;;;;;;5090538;28;20531;-68
2021/05/09 11:26:46;;;;;;;25.08;5.10;;;28.00;47.40;;;;;;5090430;28;20047;-67
2021/05/09 11:29:52;;;;;;;18.00;6.25;;;28.00;49.70;;;;;;5090880;28;20047;-69
2021/05/09 11:32:56;;;;;;;11.55;5.30;;;28.10;51.00;;;;;;5089996;28;20407;-67
2021/05/09 11:36:00;;;;;;;23.63;6.00;;;28.10;50.90;;;;;;5090329;28;20059;-68
2021/05/09 11:39:16;;;;;;;11.75;4.82;;;28.10;50.20;;;;;;5090436;28;20047;-68
2021/05/09 11:42:20;;;;;;;20.42;6.30;;;28.00;50.30;;;;;;5090173;28;20059;-68
2021/05/09 11:45:25;;;;;;;19.83;5.90;;;28.00;51.50;;;;;;5090507;28;20043;-70
2021/05/09 11:48:29;;;;;;;15.32;5.88;;;28.00;50.80;;;;;;5090602;28;20055;-69
2021/05/09 11:51:51;;;;;;;13.45;4.68;;;28.10;51.30;;;;;;5089346;28;20047;-68
2021/05/09 11:54:58;;;;;;;8.63;4.53;;;28.10;50.80;;;;;;5090561;28;20058;-69
2021/05/09 11:58:12;;;;;;;11.45;4.80;;;28.10;51.10;;;;;;5094495;28;20044;-67
2021/05/09 12:01:33;;;;;;;8.82;3.53;;;28.10;51.00;;;;;;5093904;28;20043;-68
2021/05/09 12:04:42;;;;;;;8.63;2.72;;;28.20;51.80;;;;;;5094051;28;20055;-67
2021/05/09 12:07:55;;;;;;;10.85;3.60;;;28.20;52.00;;;;;;5093956;28;20039;-68
2021/05/09 12:11:06;;;;;;;9.43;3.50;;;28.10;50.70;;;;;;5093104;28;20047;-69
2021/05/09 12:14:10;;;;;;;7.53;4.15;;;28.00;52.90;;;;;;5093104;28;20039;-70
2021/05/09 12:17:25;;;;;;;13.20;4.90;;;28.00;53.70;;;;;;5094212;28;20511;-68
2021/05/09 12:20:41;;;;;;;8.90;3.20;;;27.90;52.50;;;;;;5093997;28;20051;-67
2021/05/09 12:23:48;;;;;;;7.93;3.97;;;27.80;51.80;;;;;;5093773;28;20051;-68
2021/05/09 12:27:05;;;;;;;8.73;3.17;;;27.80;52.90;;;;;;5093974;28;20051;-69
2021/05/09 12:30:10;;;;;;;9.90;3.63;;;27.70;50.60;;;;;;5093910;28;20047;-70
2021/05/09 12:33:32;;;;;;;5.85;3.00;;;27.70;52.30;;;;;;5093721;28;20055;-69
2021/05/09 12:36:41;;;;;;;8.65;3.38;;;27.60;50.30;;;;;;5093374;28;20506;-71
2021/05/09 12:39:45;;;;;;;8.88;4.18;;;27.60;48.90;;;;;;5093762;28;20035;-70
2021/05/09 12:43:02;;;;;;;7.95;2.75;;;27.50;51.00;;;;;;5093592;28;20522;-68
2021/05/09 12:46:06;;;;;;;7.13;2.20;;;27.50;50.50;;;;;;5093103;28;20051;-68
2021/05/09 12:49:14;;;;;;;4.45;2.13;;;27.40;49.10;;;;;;5093368;28;20102;-67
2021/05/09 12:52:18;;;;;;;7.10;2.28;;;27.40;50.20;;;;;;5093070;28;20047;-68
2021/05/09 12:55:24;;;;;;;5.43;2.35;;;27.40;49.70;;;;;;5093106;28;20411;-69
2021/05/09 12:58:28;;;;;;;5.15;1.73;;;27.30;49.40;;;;;;5093219;28;20498;-67
2021/05/09 13:01:34;;;;;;;9.57;3.17;;;27.30;49.30;;;;;;5093146;28;20047;-68
2021/05/09 13:04:44;;;;;;;12.63;2.42;;;27.30;49.70;;;;;;5093000;28;20043;-69
2021/05/09 13:07:49;;;;;;;3.80;1.60;;;27.30;49.20;;;;;;5091396;28;20039;-69
2021/05/09 13:10:53;;;;;;;12.75;2.40;;;27.30;49.60;;;;;;5093052;28;20110;-68
2021/05/09 13:13:57;;;;;;;6.75;2.22;;;27.30;49.20;;;;;;5092654;28;20400;-68
2021/05/09 13:17:01;;;;;;;8.32;2.40;;;27.20;49.80;;;;;;5092059;28;20047;-68
2021/05/09 13:20:06;;;;;;;5.53;2.30;;;27.20;51.10;;;;;;5092075;28;20047;-69
2021/05/09 13:23:10;;;;;;;6.05;2.17;;;27.10;49.60;;;;;;5092615;28;20415;-69
2021/05/09 13:26:14;;;;;;;33.15;4.15;;;27.10;50.50;;;;;;5092214;28;20051;-68
2021/05/09 13:29:17;;;;;;;6.03;2.35;;;27.10;50.10;;;;;;5091880;28;20370;-67
2021/05/09 13:32:25;;;;;;;4.95;2.03;;;27.10;50.90;;;;;;5092457;28;20039;-69
2021/05/09 13:35:29;;;;;;;7.78;2.65;;;27.10;50.10;;;;;;5092467;28;20491;-77
2021/05/09 13:38:33;;;;;;;9.23;2.50;;;26.90;52.70;;;;;;5092606;28;20043;-77
2021/05/09 13:41:37;;;;;;;5.80;2.30;;;26.70;52.70;;;;;;5092445;28;20062;-76
2021/05/09 13:44:42;;;;;;;8.88;2.30;;;26.50;52.40;;;;;;5091258;28;20070;-76
2021/05/09 13:47:48;;;;;;;8.00;2.40;;;26.40;52.90;;;;;;5092240;28;20055;-75
2021/05/09 13:50:52;;;;;;;7.55;2.63;;;26.30;53.40;;;;;;5092521;28;20055;-76
2021/05/09 13:53:56;;;;;;;8.35;2.83;;;26.30;53.50;;;;;;5092141;28;20047;-73
2021/05/09 13:57:00;;;;;;;5.90;2.30;;;26.20;53.30;;;;;;5091397;28;20051;-76
2021/05/09 14:00:07;;;;;;;6.93;2.70;;;26.30;52.60;;;;;;5091223;28;20047;-75
2021/05/09 14:03:11;;;;;;;18.30;3.13;;;26.30;52.90;;;;;;5091858;28;20511;-75
2021/05/09 14:06:15;;;;;;;5.93;2.45;;;26.30;52.90;;;;;;5091874;28;20050;-77
2021/05/09 14:09:19;;;;;;;7.75;2.33;;;26.40;53.20;;;;;;5091417;28;20051;-75
2021/05/09 14:12:24;;;;;;;15.63;3.25;;;26.40;53.30;;;;;;5091012;28;20525;-75
2021/05/09 14:15:28;;;;;;;4.70;1.90;;;26.30;53.30;;;;;;5091359;28;20047;-72
2021/05/09 14:18:32;;;;;;;15.00;2.15;;;26.20;52.20;;;;;;5091168;28;20047;-74
2021/05/09 14:21:38;;;;;;;10.75;2.35;;;26.20;51.80;;;;;;5090230;28;20044;-73
2021/05/09 14:24:42;;;;;;;6.68;2.00;;;26.20;51.80;;;;;;5091369;28;20522;-73
2021/05/09 14:27:47;;;;;;;11.25;2.42;;;26.10;53.00;;;;;;5091434;28;20047;-74
2021/05/09 14:30:52;;;;;;;8.73;2.30;;;26.10;52.20;;;;;;5090566;28;20059;-73
2021/05/09 14:33:56;;;;;;;7.82;2.22;;;26.10;52.10;;;;;;5091428;28;20047;-74
2021/05/09 14:37:00;;;;;;;6.35;1.80;;;26.00;52.80;;;;;;5090740;28;20047;-73
2021/05/09 14:40:05;;;;;;;5.13;2.17;;;26.00;53.80;;;;;;5091046;28;20035;-75
2021/05/09 14:43:11;;;;;;;39.40;4.07;;;26.00;54.50;;;;;;5091018;28;20043;-73
2021/05/09 14:46:15;;;;;;;9.57;2.35;;;26.00;52.80;;;;;;5090613;28;20039;-74
2021/05/09 14:49:19;;;;;;;12.13;2.25;;;25.90;53.00;;;;;;5089678;28;20050;-73
2021/05/09 14:52:25;;;;;;;9.32;2.45;;;25.80;54.70;;;;;;5091094;28;20039;-74
2021/05/09 14:55:29;;;;;;;5.57;1.90;;;25.80;55.80;;;;;;5091067;28;20051;-73
2021/05/09 14:58:35;;;;;;;5.38;1.83;;;25.80;56.30;;;;;;5092251;28;20050;-73
2021/05/09 15:01:42;;;;;;;6.60;1.77;;;25.80;55.80;;;;;;5091309;28;20515;-74
2021/05/09 15:04:46;;;;;;;7.07;1.80;;;25.80;56.10;;;;;;5091185;28;20039;-74
2021/05/09 15:07:53;;;;;;;7.65;2.00;;;25.70;56.30;;;;;;5090981;28;20392;-74
2021/05/09 15:10:57;;;;;;;6.90;2.33;;;25.70;56.70;;;;;;5091204;28;20043;-72
2021/05/09 15:14:02;;;;;;;8.45;2.17;;;25.60;57.20;;;;;;5090636;28;20043;-75
2021/05/09 15:17:06;;;;;;;7.40;2.05;;;25.60;58.10;;;;;;5090785;28;20063;-75
2021/05/09 15:20:10;;;;;;;11.13;2.40;;;25.50;57.60;;;;;;5090523;28;20035;-73
2021/05/09 15:23:15;;;;;;;6.50;2.67;;;25.50;57.70;;;;;;5090620;28;20601;-73
2021/05/09 15:26:20;;;;;;;3.47;2.10;;;25.50;58.10;;;;;;5090416;28;20071;-76
2021/05/09 15:29:29;;;;;;;11.73;2.72;;;25.40;59.00;;;;;;5090594;28;20106;-74
2021/05/09 15:32:33;;;;;;;7.07;2.40;;;25.40;58.70;;;;;;5093560;28;20047;-74
2021/05/09 15:35:37;;;;;;;8.65;1.83;;;25.40;58.00;;;;;;5093499;28;20043;-73
2021/05/09 15:38:41;;;;;;;11.32;2.00;;;25.40;57.20;;;;;;5094353;28;20046;-75
2021/05/09 15:41:46;;;;;;;5.20;2.20;;;25.30;57.70;;;;;;5094681;28;20047;-74
2021/05/09 15:44:50;;;;;;;7.25;2.10;;;25.30;59.40;;;;;;5094587;28;20043;-73
2021/05/09 15:47:58;;;;;;;11.18;2.25;;;25.30;57.80;;;;;;5093838;28;20047;-73
2021/05/09 15:51:02;;;;;;;10.48;2.33;;;25.30;55.80;;;;;;5094299;28;20036;-74
2021/05/09 15:54:06;;;;;;;6.20;2.17;;;25.20;56.10;;;;;;5094160;28;20051;-74
2021/05/09 15:57:10;;;;;;;9.57;2.08;;;25.10;56.20;;;;;;5094124;28;20047;-74